createdAt,value
2022-12-14T00:01:45.158Z,26.55
2022-12-14T00:04:16.424Z,25.05
2022-12-14T00:06:43.451Z,29.65
2022-12-14T00:09:10.424Z,30.25
2022-12-14T00:11:37.573Z,29.52
2022-12-14T00:14:05.338Z,26.92
2022-12-14T00:16:34.290Z,27.55
2022-12-14T00:19:02.902Z,26.25
2022-12-14T00:21:30.413Z,28.13
2022-12-14T00:23:59.711Z,28.17
2022-12-14T00:26:30.063Z,27.75
2022-12-14T00:28:59.659Z,33.10
2022-12-14T00:31:26.927Z,38.55
2022-12-14T00:33:54.963Z,47.90
2022-12-14T00:36:22.420Z,41.85
2022-12-14T00:38:49.773Z,31.88
2022-12-14T00:41:17.017Z,33.42
2022-12-14T00:43:44.345Z,29.50
2022-12-14T00:46:11.465Z,31.65
2022-12-14T00:48:38.628Z,29.17
2022-12-14T00:51:06.020Z,31.60
2022-12-14T00:53:33.131Z,27.10
2022-12-14T00:56:08.379Z,26.70
2022-12-14T00:58:35.845Z,27.90
2022-12-14T01:01:08.609Z,25.73
2022-12-14T01:03:36.132Z,25.27
2022-12-14T01:06:03.705Z,29.60
2022-12-14T01:08:36.150Z,29.45
2022-12-14T01:11:05.671Z,32.70
2022-12-14T01:13:33.254Z,28.25
2022-12-14T01:16:11.540Z,28.42
2022-12-14T01:18:40.013Z,34.17
2022-12-14T01:21:20.148Z,29.85
2022-12-14T01:23:48.693Z,33.05
2022-12-14T01:26:17.240Z,35.63
2022-12-14T01:28:46.170Z,32.60
2022-12-14T01:31:18.637Z,30.73
2022-12-14T01:33:46.437Z,36.58
2022-12-14T01:36:16.650Z,32.83
2022-12-14T01:38:44.440Z,33.78
2022-12-14T01:41:23.090Z,37.20
2022-12-14T01:43:56.769Z,41.38
2022-12-14T01:46:45.160Z,39.90
2022-12-14T01:49:24.095Z,40.13
2022-12-14T01:52:00.988Z,41.30
2022-12-14T01:54:31.467Z,52.63
2022-12-14T01:56:58.733Z,47.30
2022-12-14T01:59:36.982Z,44.60
2022-12-14T02:02:07.208Z,54.75
2022-12-14T02:04:37.862Z,50.30
2022-12-14T02:07:05.290Z,58.45
2022-12-14T02:09:36.811Z,53.78
2022-12-14T02:12:09.981Z,59.08
2022-12-14T02:14:37.697Z,64.45
2022-12-14T02:17:06.452Z,59.08
2022-12-14T02:19:33.668Z,61.63
2022-12-14T02:22:18.847Z,67.70
2022-12-14T02:25:04.658Z,70.30
2022-12-14T02:28:26.933Z,72.88
2022-12-14T02:31:08.112Z,77.85
2022-12-14T02:33:55.686Z,83.78
2022-12-14T02:36:29.158Z,87.47
2022-12-14T02:39:25.804Z,94.82
2022-12-14T02:42:31.215Z,101.85
2022-12-14T02:45:09.823Z,98.63
2022-12-14T02:47:39.370Z,97.07
2022-12-14T02:50:14.947Z,105.55
2022-12-14T02:52:55.645Z,110.80
2022-12-14T02:55:30.491Z,100.93
2022-12-14T02:58:02.416Z,99.88
2022-12-14T03:00:33.582Z,118.95
2022-12-14T03:03:02.484Z,108.07
2022-12-14T03:05:30.134Z,105.13
2022-12-14T03:08:04.250Z,98.38
2022-12-14T03:10:57.493Z,102.47
2022-12-14T03:13:38.776Z,101.82
2022-12-14T03:16:13.543Z,96.72
2022-12-14T03:18:49.730Z,86.30
2022-12-14T03:21:21.730Z,90.30
2022-12-14T03:23:52.010Z,98.00
2022-12-14T03:26:27.968Z,87.05
2022-12-14T03:29:06.893Z,101.45
2022-12-14T03:31:40.350Z,100.93
2022-12-14T03:34:13.334Z,106.22
2022-12-14T03:36:47.361Z,103.03
2022-12-14T03:39:30.112Z,126.35
2022-12-14T03:42:14.082Z,123.40
2022-12-14T03:44:59.493Z,131.50
2022-12-14T03:47:52.422Z,125.32
2022-12-14T03:50:28.992Z,125.68
2022-12-14T03:53:07.620Z,132.65
2022-12-14T03:55:49.747Z,130.20
2022-12-14T03:58:27.141Z,123.07
2022-12-14T04:01:09.121Z,118.32
2022-12-14T04:03:50.256Z,108.32
2022-12-14T04:06:26.673Z,111.30
2022-12-14T04:09:23.038Z,115.93
2022-12-14T04:12:16.933Z,100.53
2022-12-14T04:15:08.807Z,105.88
2022-12-14T04:18:05.910Z,118.70
2022-12-14T04:20:53.752Z,98.10
2022-12-14T04:23:54.336Z,103.80
2022-12-14T04:26:27.395Z,91.70
2022-12-14T04:29:18.023Z,91.47
2022-12-14T04:31:51.539Z,95.18
2022-12-14T04:34:23.291Z,83.03
2022-12-14T04:36:56.236Z,82.22
2022-12-14T04:39:29.533Z,75.93
2022-12-14T04:42:01.014Z,71.60
2022-12-14T04:44:53.533Z,58.47
2022-12-14T04:47:29.192Z,65.95
2022-12-14T04:50:11.072Z,66.78
2022-12-14T04:52:45.894Z,76.55
2022-12-14T04:55:25.420Z,69.43
2022-12-14T04:57:58.485Z,79.07
2022-12-14T05:00:25.764Z,74.28
2022-12-14T05:03:17.040Z,72.00
2022-12-14T05:06:08.953Z,68.55
2022-12-14T05:08:57.463Z,74.75
2022-12-14T05:14:27.899Z,84.00
2022-12-14T05:16:55.746Z,84.25
2022-12-14T05:19:26.747Z,75.32
2022-12-14T05:21:54.891Z,75.20
2022-12-14T05:24:21.906Z,70.50
2022-12-14T05:26:48.982Z,63.13
2022-12-14T05:29:17.146Z,60.78
2022-12-14T05:31:49.327Z,63.88
2022-12-14T05:34:17.303Z,57.17
2022-12-14T05:36:44.444Z,57.17
2022-12-14T05:39:11.497Z,51.15
2022-12-14T05:41:38.570Z,48.53
2022-12-14T05:44:05.739Z,48.42
2022-12-14T05:46:32.780Z,43.97
2022-12-14T05:48:59.782Z,49.97
2022-12-14T05:51:26.928Z,59.50
2022-12-14T05:53:53.930Z,63.47
2022-12-14T05:56:21.221Z,61.88
2022-12-14T05:58:51.577Z,67.28
2022-12-14T06:01:19.669Z,60.50
2022-12-14T06:03:47.861Z,63.75
2022-12-14T06:06:15.343Z,68.40
2022-12-14T06:08:45.100Z,64.05
2022-12-14T06:11:20.529Z,63.80
2022-12-14T06:13:48.289Z,69.95
2022-12-14T06:16:24.656Z,66.40
2022-12-14T06:18:54.182Z,56.60
2022-12-14T06:21:24.020Z,61.95
2022-12-14T06:23:51.174Z,70.15
2022-12-14T06:26:18.759Z,60.55
2022-12-14T06:28:45.940Z,62.95
2022-12-14T06:31:24.329Z,61.90
2022-12-14T06:33:53.412Z,52.08
2022-12-14T06:36:38.131Z,48.77
2022-12-14T06:39:08.326Z,50.70
2022-12-14T06:41:35.458Z,45.75
2022-12-14T06:44:05.761Z,43.13
2022-12-14T06:46:33.022Z,38.97
2022-12-14T06:49:00.135Z,37.00
2022-12-14T06:51:27.117Z,38.33
2022-12-14T06:53:56.220Z,41.80
2022-12-14T06:56:27.813Z,52.00
2022-12-14T06:58:56.339Z,47.13
2022-12-14T07:01:25.836Z,43.58
2022-12-14T07:03:57.862Z,38.92
2022-12-14T07:06:26.857Z,38.10
2022-12-14T07:08:55.621Z,33.63
2022-12-14T07:11:23.384Z,34.95
2022-12-14T07:13:50.573Z,37.40
2022-12-14T07:16:20.228Z,41.97
2022-12-14T07:18:48.072Z,40.45
2022-12-14T07:21:17.262Z,37.72
2022-12-14T07:23:46.031Z,38.85
2022-12-14T07:26:19.088Z,37.47
2022-12-14T07:28:47.294Z,38.63
2022-12-14T07:31:17.980Z,40.67
2022-12-14T07:33:45.773Z,43.67
2022-12-14T07:36:16.140Z,41.45
2022-12-14T07:38:45.013Z,35.70
2022-12-14T07:41:22.311Z,43.38
2022-12-14T07:43:50.323Z,35.78
2022-12-14T07:46:20.291Z,35.08
2022-12-14T07:51:17.889Z,34.67
2022-12-14T07:53:45.096Z,32.05
2022-12-14T07:56:25.142Z,33.95
2022-12-14T07:58:52.782Z,32.25
2022-12-14T08:01:22.893Z,36.28
2022-12-14T08:04:04.150Z,36.38
2022-12-14T08:06:31.632Z,42.22
2022-12-14T08:08:58.902Z,37.65
2022-12-14T08:11:26.182Z,35.72
2022-12-14T08:14:17.255Z,37.03
2022-12-14T08:16:45.646Z,42.22
2022-12-14T08:19:13.711Z,39.47
2022-12-14T08:21:41.315Z,42.47
2022-12-14T08:24:11.427Z,41.25
2022-12-14T08:26:38.625Z,45.17
2022-12-14T08:29:06.662Z,47.10
2022-12-14T08:31:34.718Z,41.95
2022-12-14T08:34:02.425Z,46.47
2022-12-14T08:36:32.975Z,43.50
2022-12-14T08:39:04.822Z,45.58
2022-12-14T08:41:32.636Z,41.40
2022-12-14T08:44:01.746Z,46.55
2022-12-14T08:46:31.300Z,44.53
2022-12-14T08:48:59.028Z,42.88
2022-12-14T08:51:27.334Z,40.53
2022-12-14T08:53:55.891Z,38.17
2022-12-14T08:56:25.734Z,44.95
2022-12-14T08:58:53.056Z,48.83
2022-12-14T09:01:32.051Z,44.55
2022-12-14T09:04:08.848Z,47.20
2022-12-14T09:06:38.309Z,47.45
2022-12-14T09:09:11.952Z,46.97
2022-12-14T09:11:43.345Z,44.70
2022-12-14T09:14:10.984Z,42.72
2022-12-14T09:16:38.241Z,39.22
2022-12-14T09:19:05.434Z,45.90
2022-12-14T09:21:32.778Z,43.63
2022-12-14T09:24:00.163Z,42.35
2022-12-14T09:26:27.878Z,41.25
2022-12-14T09:28:56.593Z,42.55
2022-12-14T09:31:26.483Z,39.08
2022-12-14T09:36:25.253Z,40.90
2022-12-14T09:38:55.523Z,43.47
2022-12-14T09:41:34.678Z,43.90
2022-12-14T09:44:17.728Z,39.42
2022-12-14T09:47:10.939Z,43.80
2022-12-14T09:49:53.673Z,46.10
2022-12-14T09:52:26.453Z,42.53
2022-12-14T09:54:55.298Z,46.13
2022-12-14T09:57:30.651Z,47.08
2022-12-14T09:59:57.780Z,49.42
2022-12-14T10:02:43.025Z,52.60
2022-12-14T10:05:34.091Z,50.92
2022-12-14T10:08:13.443Z,51.50
2022-12-14T10:11:07.027Z,54.67
2022-12-14T10:13:51.473Z,57.80
2022-12-14T10:16:33.453Z,52.05
2022-12-14T10:19:35.392Z,43.40
2022-12-14T10:22:18.743Z,39.67
2022-12-14T10:25:15.071Z,42.83
2022-12-14T10:28:09.662Z,40.58
2022-12-14T10:30:36.464Z,38.25
2022-12-14T10:33:16.954Z,40.38
2022-12-14T10:36:00.395Z,34.20
2022-12-14T10:38:35.299Z,37.53
2022-12-14T10:41:29.904Z,39.45
2022-12-14T10:44:12.724Z,36.95
2022-12-14T10:47:01.205Z,41.03
2022-12-14T10:49:36.776Z,39.88
2022-12-14T10:52:12.631Z,40.80
2022-12-14T10:54:52.642Z,44.20
2022-12-14T10:57:27.485Z,46.83
2022-12-14T11:00:11.145Z,45.05
2022-12-14T11:02:42.812Z,46.55
2022-12-14T11:05:24.661Z,44.00
2022-12-14T11:07:51.681Z,47.92
2022-12-14T11:10:24.707Z,45.65
2022-12-14T11:13:12.777Z,39.97
2022-12-14T11:15:46.733Z,40.58
2022-12-14T11:18:16.600Z,46.25
2022-12-14T11:23:18.734Z,45.22
2022-12-14T11:25:49.202Z,44.42
2022-12-14T11:28:31.309Z,43.00
2022-12-14T11:31:10.809Z,45.03
2022-12-14T11:33:44.013Z,46.97
2022-12-14T11:36:42.976Z,48.95
2022-12-14T11:39:15.715Z,44.90
2022-12-14T11:41:52.462Z,50.13
2022-12-14T11:44:19.585Z,48.33
2022-12-14T11:46:56.518Z,50.25
2022-12-14T11:49:25.305Z,49.90
2022-12-14T11:51:58.495Z,53.60
2022-12-14T11:54:25.928Z,50.78
2022-12-14T11:56:59.647Z,53.22
2022-12-14T11:59:32.931Z,51.70
2022-12-14T12:02:37.466Z,46.40
2022-12-14T12:05:10.349Z,43.78
2022-12-14T12:07:40.688Z,51.03
2022-12-14T12:10:45.072Z,47.22
2022-12-14T12:13:35.710Z,45.55
2022-12-14T12:16:10.564Z,48.08
2022-12-14T12:18:46.664Z,48.25
2022-12-14T12:21:35.352Z,49.35
2022-12-14T12:24:05.306Z,41.72
2022-12-14T12:29:20.504Z,39.17
2022-12-14T12:32:08.704Z,48.15
2022-12-14T12:34:49.451Z,50.08
2022-12-14T12:37:26.646Z,44.65
2022-12-14T12:40:02.562Z,45.70
2022-12-14T12:42:50.298Z,47.60
2022-12-14T12:45:40.582Z,49.03
2022-12-14T12:48:33.416Z,43.47
2022-12-14T12:51:05.362Z,43.70
2022-12-14T12:53:39.266Z,47.08
2022-12-14T12:56:14.143Z,49.70
2022-12-14T12:58:41.558Z,57.58
2022-12-14T13:01:24.922Z,48.95
2022-12-14T13:03:57.460Z,44.60
2022-12-14T13:06:52.006Z,53.47
2022-12-14T13:09:48.903Z,46.10
2022-12-14T13:12:33.022Z,45.60
2022-12-14T13:15:03.389Z,44.45
2022-12-14T13:17:33.187Z,50.38
2022-12-14T13:20:04.334Z,47.35
2022-12-14T13:22:33.704Z,46.00
2022-12-14T13:25:11.110Z,44.75
2022-12-14T13:27:41.021Z,44.63
2022-12-14T13:30:16.720Z,41.67
2022-12-14T13:33:05.757Z,39.85
2022-12-14T13:35:32.958Z,41.17
2022-12-14T13:38:48.966Z,40.70
2022-12-14T13:41:32.495Z,42.65
2022-12-14T13:44:18.048Z,47.45
2022-12-14T13:46:45.284Z,47.78
2022-12-14T13:49:22.539Z,50.95
2022-12-14T13:51:51.302Z,48.08
2022-12-14T13:54:31.583Z,50.00
2022-12-14T13:57:23.459Z,55.60
2022-12-14T13:59:53.298Z,57.33
2022-12-14T14:02:32.422Z,56.80
2022-12-14T14:05:15.185Z,57.60
2022-12-14T14:07:53.784Z,59.75
2022-12-14T14:10:51.291Z,56.47
2022-12-14T14:13:30.069Z,56.17
2022-12-14T14:16:27.345Z,59.17
2022-12-14T14:19:13.396Z,55.88
2022-12-14T14:22:14.125Z,59.38
2022-12-14T14:24:55.193Z,58.17
2022-12-14T14:27:50.414Z,62.58
2022-12-14T14:30:27.933Z,63.58
2022-12-14T14:33:07.547Z,60.97
2022-12-14T14:35:43.092Z,62.03
2022-12-14T14:38:32.177Z,61.72
2022-12-14T14:41:18.795Z,66.72
2022-12-14T14:44:21.685Z,62.45
2022-12-14T14:46:50.557Z,70.18
2022-12-14T14:49:26.546Z,69.90
2022-12-14T14:51:53.855Z,69.43
2022-12-14T14:54:56.111Z,66.47
2022-12-14T14:57:56.467Z,68.13
2022-12-14T15:00:23.572Z,67.55
2022-12-14T15:02:54.675Z,71.70
2022-12-14T15:05:41.858Z,69.15
2022-12-14T15:08:29.298Z,70.40
2022-12-14T15:10:57.281Z,67.85
2022-12-14T15:13:28.735Z,68.68
2022-12-14T15:15:58.788Z,64.07
2022-12-14T15:18:27.250Z,67.25
2022-12-14T15:21:05.866Z,64.57
2022-12-14T15:23:38.063Z,66.47
2022-12-14T15:26:26.106Z,64.53
2022-12-14T15:28:59.232Z,71.90
2022-12-14T15:31:42.127Z,68.88
2022-12-14T15:34:19.860Z,69.05
2022-12-14T15:36:47.980Z,74.72
2022-12-14T15:39:32.868Z,71.88
2022-12-14T15:42:15.370Z,73.63
2022-12-14T15:44:54.422Z,73.50
2022-12-14T15:47:31.255Z,75.30
2022-12-14T15:50:33.933Z,75.45
2022-12-14T15:53:18.481Z,69.55
2022-12-14T15:55:56.348Z,73.20
2022-12-14T15:58:34.629Z,72.07
2022-12-14T16:01:11.732Z,78.03
2022-12-14T16:03:42.685Z,73.97
2022-12-14T16:06:12.522Z,73.10
2022-12-14T16:08:55.365Z,74.80
2022-12-14T16:11:40.377Z,73.03
2022-12-14T16:14:31.061Z,81.65
2022-12-14T16:16:59.912Z,77.60
2022-12-14T16:19:33.907Z,73.82
2022-12-14T16:22:10.489Z,78.63
2022-12-14T16:27:18.662Z,77.65
2022-12-14T16:30:06.891Z,79.88
2022-12-14T16:32:34.011Z,83.28
2022-12-14T16:35:01.858Z,82.97
2022-12-14T16:37:36.654Z,83.47
2022-12-14T16:40:04.205Z,84.82
2022-12-14T16:42:31.972Z,88.85
2022-12-14T16:44:59.052Z,93.43
2022-12-14T16:47:29.173Z,104.75
2022-12-14T16:49:59.730Z,87.30
2022-12-14T16:52:32.645Z,98.43
2022-12-14T16:55:10.689Z,97.82
2022-12-14T16:57:50.463Z,105.13
2022-12-14T17:00:26.501Z,93.28
2022-12-14T17:03:05.897Z,95.03
2022-12-14T17:05:40.183Z,99.25
2022-12-14T17:08:08.380Z,107.60
2022-12-14T17:10:35.506Z,106.28
2022-12-14T17:13:04.114Z,106.70
2022-12-14T17:15:34.517Z,108.82
2022-12-14T17:18:04.813Z,116.13
2022-12-14T17:20:39.410Z,113.13
2022-12-14T17:23:09.751Z,129.43
2022-12-14T17:25:37.071Z,126.47
2022-12-14T17:28:06.821Z,128.95
2022-12-14T17:30:34.007Z,124.10
2022-12-14T17:33:01.137Z,124.43
2022-12-14T17:35:31.650Z,124.20
2022-12-14T17:37:59.721Z,124.60
2022-12-14T17:40:27.352Z,126.47
2022-12-14T17:42:57.208Z,129.93
2022-12-14T17:47:53.614Z,129.02
2022-12-14T17:50:22.066Z,127.50
2022-12-14T17:52:50.549Z,132.52
2022-12-14T17:55:23.265Z,122.68
2022-12-14T17:57:51.412Z,131.85
2022-12-14T18:00:48.002Z,125.45
2022-12-14T18:03:17.042Z,128.10
2022-12-14T18:05:48.888Z,125.93
2022-12-14T18:08:20.571Z,121.43
2022-12-14T18:10:51.211Z,119.30
2022-12-14T18:13:18.381Z,122.60
2022-12-14T18:15:49.673Z,119.30
2022-12-14T18:18:21.915Z,134.73
2022-12-14T18:20:53.877Z,122.70
2022-12-14T18:23:22.138Z,118.10
2022-12-14T18:25:52.800Z,126.32
2022-12-14T18:28:20.651Z,116.55
2022-12-14T18:31:00.384Z,120.68
2022-12-14T18:33:28.497Z,119.07
2022-12-14T18:35:57.059Z,110.55
2022-12-14T18:38:25.174Z,123.63
2022-12-14T18:40:55.063Z,112.82
2022-12-14T18:45:53.324Z,112.15
2022-12-14T18:48:21.410Z,108.78
2022-12-14T18:50:49.821Z,111.32
2022-12-14T18:53:19.670Z,105.50
2022-12-14T18:55:48.450Z,106.03
2022-12-14T18:58:19.197Z,106.20
2022-12-14T19:00:47.897Z,107.30
2022-12-14T19:03:15.526Z,105.25
2022-12-14T19:05:42.885Z,99.05
2022-12-14T19:08:10.903Z,95.38
2022-12-14T19:10:40.576Z,100.47
2022-12-14T19:13:09.753Z,99.25
2022-12-14T19:15:36.939Z,97.38
2022-12-14T19:18:04.172Z,98.28
2022-12-14T19:20:31.335Z,97.88
2022-12-14T19:22:58.658Z,90.40
2022-12-14T19:25:25.900Z,96.00
2022-12-14T19:30:40.334Z,88.20
2022-12-14T19:33:08.302Z,94.05
2022-12-14T19:35:35.530Z,91.80
2022-12-14T19:38:02.615Z,91.68
2022-12-14T19:40:29.735Z,88.75
2022-12-14T19:42:56.858Z,97.07
2022-12-14T19:45:23.913Z,92.20
2022-12-14T19:47:51.215Z,92.93
2022-12-14T19:50:18.333Z,90.93
2022-12-14T19:52:45.498Z,93.20
2022-12-14T19:55:12.503Z,90.75
2022-12-14T19:57:40.590Z,90.13
2022-12-14T20:00:09.563Z,92.97
2022-12-14T20:02:40.017Z,92.40
2022-12-14T20:05:08.061Z,88.40
2022-12-14T20:07:40.190Z,93.75
2022-12-14T20:10:10.583Z,94.43
2022-12-14T20:12:37.572Z,96.20
2022-12-14T20:15:05.028Z,96.32
2022-12-14T20:17:32.302Z,98.35
2022-12-14T20:19:59.549Z,92.15
2022-12-14T20:22:26.882Z,90.20
2022-12-14T20:24:53.949Z,99.68
2022-12-14T20:27:21.064Z,91.35
2022-12-14T20:29:48.273Z,97.35
2022-12-14T20:32:15.365Z,99.20
2022-12-14T20:34:42.842Z,89.45
2022-12-14T20:37:10.070Z,95.97
2022-12-14T20:39:37.139Z,91.25
2022-12-14T20:42:04.174Z,96.47
2022-12-14T20:44:31.533Z,95.78
2022-12-14T20:46:58.543Z,89.47
2022-12-14T20:49:30.159Z,87.25
2022-12-14T20:51:57.690Z,88.50
2022-12-14T20:54:25.780Z,93.57
2022-12-14T20:56:52.891Z,95.07
2022-12-14T20:59:20.129Z,97.07
2022-12-14T21:01:53.581Z,98.80
2022-12-14T21:04:23.143Z,93.05
2022-12-14T21:06:50.346Z,84.43
2022-12-14T21:09:17.522Z,91.85
2022-12-14T21:12:08.696Z,86.68
2022-12-14T21:14:38.094Z,93.75
2022-12-14T21:17:06.070Z,96.72
2022-12-14T21:19:34.072Z,98.75
2022-12-14T21:22:01.134Z,92.25
2022-12-14T21:25:01.165Z,90.72
2022-12-14T21:27:25.021Z,97.80
2022-12-14T21:29:52.882Z,96.85
2022-12-14T21:32:21.494Z,116.65
2022-12-14T21:34:49.067Z,112.93
2022-12-14T21:37:16.302Z,110.68
2022-12-14T21:39:47.566Z,107.43
2022-12-14T21:42:20.923Z,114.82
2022-12-14T21:44:50.778Z,120.57
2022-12-14T21:49:49.613Z,111.07
2022-12-14T21:52:20.576Z,110.05
2022-12-14T21:54:47.799Z,118.25
2022-12-14T21:57:35.902Z,100.72
2022-12-14T22:00:05.697Z,102.63
2022-12-14T22:02:39.891Z,96.22
2022-12-14T22:05:07.593Z,104.30
2022-12-14T22:07:34.691Z,113.90
2022-12-14T22:10:02.255Z,110.88
2022-12-14T22:12:29.602Z,109.80
2022-12-14T22:14:56.661Z,103.28
2022-12-14T22:17:23.879Z,105.25
2022-12-14T22:19:52.242Z,105.18
2022-12-14T22:22:19.292Z,100.63
2022-12-14T22:24:49.743Z,108.28
2022-12-14T22:27:17.223Z,117.00
2022-12-14T22:29:44.301Z,106.72
2022-12-14T22:32:12.396Z,100.35
2022-12-14T22:34:39.785Z,106.45
2022-12-14T22:37:06.921Z,106.93
2022-12-14T22:39:33.975Z,102.00
2022-12-14T22:42:01.225Z,105.88
2022-12-14T22:44:28.498Z,109.80
2022-12-14T22:46:55.570Z,103.97
2022-12-14T22:49:22.849Z,104.85
2022-12-14T22:51:50.740Z,100.70
2022-12-14T22:54:27.855Z,109.32
2022-12-14T22:57:02.573Z,104.35
2022-12-14T23:00:05.311Z,100.95
2022-12-14T23:02:32.518Z,106.63
2022-12-14T23:04:59.813Z,97.80
2022-12-14T23:07:26.806Z,110.95
2022-12-14T23:10:12.485Z,110.88
2022-12-14T23:12:57.968Z,105.57
2022-12-14T23:15:43.701Z,104.78
2022-12-14T23:18:29.014Z,101.43
2022-12-14T23:21:15.004Z,102.25
2022-12-14T23:24:01.915Z,95.97
2022-12-14T23:26:47.983Z,93.07
2022-12-14T23:29:33.958Z,91.13
2022-12-14T23:32:19.173Z,87.03
2022-12-14T23:35:04.562Z,98.38
2022-12-14T23:37:50.291Z,97.70
2022-12-14T23:40:35.767Z,99.22
2022-12-14T23:43:36.124Z,94.22
2022-12-14T23:46:23.139Z,100.13
2022-12-14T23:49:13.699Z,91.38
2022-12-14T23:52:01.525Z,100.00
2022-12-14T23:54:47.216Z,109.90
2022-12-14T23:57:32.710Z,103.80
